createdAt,value
2023-02-06T00:02:40.693Z,91.35
2023-02-06T00:07:43.289Z,91.71
2023-02-06T00:12:47.098Z,92.37
2023-02-06T00:17:49.584Z,92.69
2023-02-06T00:22:52.087Z,92.86
2023-02-06T00:27:55.957Z,93.22
2023-02-06T00:32:58.477Z,93.59
2023-02-06T00:38:02.416Z,93.68
2023-02-06T00:43:06.550Z,93.52
2023-02-06T00:48:10.101Z,93.46
2023-02-06T00:53:12.565Z,93.78
2023-02-06T00:58:16.401Z,93.59
2023-02-06T01:03:18.970Z,93.86
2023-02-06T01:08:21.481Z,93.52
2023-02-06T01:13:25.326Z,93.69
2023-02-06T01:18:27.826Z,93.87
2023-02-06T01:23:30.404Z,94.00
2023-02-06T01:28:36.573Z,93.67
2023-02-06T01:33:39.308Z,94.02
2023-02-06T01:38:42.547Z,94.02
2023-02-06T01:43:48.782Z,94.43
2023-02-06T01:48:54.346Z,94.55
2023-02-06T01:54:01.005Z,94.83
2023-02-06T01:59:05.335Z,94.88
2023-02-06T02:04:11.883Z,95.05
2023-02-06T02:09:14.971Z,94.87
2023-02-06T02:14:19.051Z,95.65
2023-02-06T02:19:57.772Z,97.35
2023-02-06T02:25:29.165Z,98.90
2023-02-06T02:31:08.936Z,100.00
2023-02-06T02:36:18.687Z,99.68
2023-02-06T02:41:27.639Z,100.00
2023-02-06T02:46:33.814Z,100.00
2023-02-06T02:51:40.212Z,99.76
2023-02-06T02:56:43.666Z,99.55
2023-02-06T03:01:52.909Z,99.18
2023-02-06T03:07:08.482Z,98.50
2023-02-06T03:12:15.747Z,98.47
2023-02-06T03:17:25.646Z,98.32
2023-02-06T03:22:31.564Z,98.97
2023-02-06T03:27:35.141Z,99.00
2023-02-06T03:32:43.699Z,99.44
2023-02-06T03:37:49.512Z,99.23
2023-02-06T03:42:56.955Z,98.79
2023-02-06T03:48:03.330Z,98.72
2023-02-06T03:53:08.428Z,99.26
2023-02-06T03:58:13.871Z,99.66
2023-02-06T04:03:16.795Z,98.94
2023-02-06T04:08:20.597Z,98.63
2023-02-06T04:13:23.132Z,98.94
2023-02-06T04:18:25.627Z,98.48
2023-02-06T04:23:29.412Z,98.86
2023-02-06T04:28:31.916Z,99.03
2023-02-06T04:33:34.452Z,99.18
2023-02-06T04:38:38.289Z,98.39
2023-02-06T04:43:41.018Z,98.95
2023-02-06T04:48:43.558Z,99.75
2023-02-06T04:53:50.010Z,99.66
2023-02-06T04:58:52.685Z,99.69
2023-02-06T05:03:55.195Z,99.32
2023-02-06T05:08:59.118Z,99.68
2023-02-06T05:14:01.603Z,99.61
2023-02-06T05:19:04.078Z,99.63
2023-02-06T05:24:08.030Z,99.81
2023-02-06T05:29:10.513Z,99.36
2023-02-06T05:34:13.002Z,99.72
2023-02-06T05:39:16.792Z,99.05
2023-02-06T05:44:19.328Z,98.95
2023-02-06T05:49:21.831Z,98.58
2023-02-06T05:54:25.822Z,98.63
2023-02-06T05:59:28.305Z,98.44
2023-02-06T06:04:30.954Z,98.16
2023-02-06T06:09:34.814Z,97.79
2023-02-06T06:14:37.275Z,97.58
2023-02-06T06:19:39.754Z,97.15
2023-02-06T06:24:43.583Z,96.48
2023-02-06T06:29:46.106Z,95.53
2023-02-06T06:34:48.606Z,95.26
2023-02-06T06:39:52.400Z,94.94
2023-02-06T06:44:54.882Z,95.13
2023-02-06T06:49:57.374Z,94.93
2023-02-06T06:55:01.201Z,94.14
2023-02-06T07:00:04.563Z,93.77
2023-02-06T07:05:07.765Z,94.07
2023-02-06T07:10:13.212Z,93.66
2023-02-06T07:15:15.808Z,93.59
2023-02-06T07:20:18.536Z,93.48
2023-02-06T07:25:22.402Z,93.20
2023-02-06T07:30:25.285Z,92.92
2023-02-06T07:35:27.814Z,93.14
2023-02-06T07:40:44.086Z,92.87
2023-02-06T07:45:47.437Z,93.26
2023-02-06T07:50:49.926Z,93.28
2023-02-06T07:55:53.758Z,93.14
2023-02-06T08:00:56.309Z,92.91
2023-02-06T08:05:58.884Z,92.92
2023-02-06T08:11:05.908Z,93.21
2023-02-06T08:16:11.596Z,92.94
2023-02-06T08:21:16.026Z,92.83
2023-02-06T08:26:21.653Z,93.00
2023-02-06T08:31:26.231Z,92.61
2023-02-06T08:36:31.494Z,92.68
2023-02-06T08:41:38.078Z,92.34
2023-02-06T08:46:41.187Z,92.81
2023-02-06T08:51:43.772Z,92.50
2023-02-06T08:56:47.964Z,92.26
2023-02-06T09:01:52.035Z,92.10
2023-02-06T09:06:54.519Z,92.16
2023-02-06T09:12:02.139Z,91.38
2023-02-06T09:17:04.665Z,91.90
2023-02-06T09:22:07.322Z,91.71
2023-02-06T09:27:11.150Z,90.96
2023-02-06T09:32:13.951Z,90.96
2023-02-06T09:37:16.486Z,90.62
2023-02-06T09:42:30.691Z,90.94
2023-02-06T09:47:36.214Z,90.69
2023-02-06T09:52:55.725Z,90.62
2023-02-06T09:58:07.500Z,89.96
2023-02-06T10:03:31.479Z,89.70
2023-02-06T10:08:39.874Z,90.36
2023-02-06T10:13:49.777Z,90.05
2023-02-06T10:18:54.863Z,89.30
2023-02-06T10:24:05.078Z,89.09
2023-02-06T10:29:16.934Z,89.34
2023-02-06T10:34:39.028Z,89.47
2023-02-06T10:39:53.997Z,88.32
2023-02-06T10:45:18.663Z,88.52
2023-02-06T10:50:28.656Z,88.34
2023-02-06T10:55:41.057Z,88.37
2023-02-06T11:00:46.938Z,88.35
2023-02-06T11:05:50.054Z,87.78
2023-02-06T11:10:52.772Z,87.59
2023-02-06T11:16:02.449Z,87.28
2023-02-06T11:21:05.852Z,87.45
2023-02-06T11:26:14.014Z,87.06
2023-02-06T11:31:20.515Z,87.02
2023-02-06T11:36:27.239Z,86.71
2023-02-06T11:41:31.021Z,86.73
2023-02-06T11:46:36.738Z,86.82
2023-02-06T11:51:49.423Z,86.81
2023-02-06T11:57:04.889Z,86.96
2023-02-06T12:02:27.310Z,86.36
2023-02-06T12:07:33.705Z,86.47
2023-02-06T12:12:41.406Z,86.60
2023-02-06T12:17:51.742Z,85.71
2023-02-06T12:22:57.710Z,85.49
2023-02-06T12:28:07.045Z,85.87
2023-02-06T12:33:16.900Z,85.88
2023-02-06T12:38:27.110Z,85.69
2023-02-06T12:43:33.581Z,85.53
2023-02-06T12:48:42.542Z,85.57
2023-02-06T12:53:50.074Z,86.45
2023-02-06T12:59:03.376Z,85.41
2023-02-06T13:04:13.290Z,85.47
2023-02-06T13:09:22.342Z,85.22
2023-02-06T13:14:26.927Z,85.26
2023-02-06T13:19:53.504Z,85.42
2023-02-06T13:24:58.622Z,85.64
2023-02-06T13:30:42.348Z,84.82
2023-02-06T13:36:01.594Z,85.05
2023-02-06T13:41:28.968Z,84.90
2023-02-06T13:46:52.732Z,85.42
2023-02-06T13:52:05.234Z,84.67
2023-02-06T13:57:21.673Z,85.36
2023-02-06T14:02:29.928Z,84.89
2023-02-06T14:07:49.385Z,84.81
2023-02-06T14:13:08.135Z,85.00
2023-02-06T14:18:26.933Z,85.03
2023-02-06T14:23:59.112Z,84.82
2023-02-06T14:29:14.971Z,85.13
2023-02-06T14:34:29.772Z,84.92
2023-02-06T14:39:43.041Z,84.51
2023-02-06T14:44:51.194Z,84.61
2023-02-06T14:49:55.169Z,84.92
2023-02-06T14:54:58.976Z,84.23
2023-02-06T15:00:04.453Z,84.89
2023-02-06T15:05:07.303Z,85.04
2023-02-06T15:10:16.054Z,84.77
2023-02-06T15:15:21.315Z,85.38
2023-02-06T15:20:30.079Z,85.36
2023-02-06T15:25:46.436Z,85.27
2023-02-06T15:30:53.974Z,85.08
2023-02-06T15:35:59.396Z,85.27
2023-02-06T15:41:06.395Z,85.94
2023-02-06T15:46:09.298Z,85.33
2023-02-06T15:51:21.587Z,84.85
2023-02-06T15:56:29.433Z,84.49
2023-02-06T16:01:37.194Z,84.60
2023-02-06T16:06:40.052Z,84.91
2023-02-06T16:11:52.892Z,85.29
2023-02-06T16:17:01.614Z,85.22
2023-02-06T16:22:06.398Z,85.27
2023-02-06T16:27:21.773Z,84.65
2023-02-06T16:32:26.561Z,84.73
2023-02-06T16:37:31.701Z,84.32
2023-02-06T16:42:37.947Z,85.07
2023-02-06T16:47:40.551Z,84.70
2023-02-06T16:52:48.575Z,84.99
2023-02-06T16:57:54.373Z,84.06
2023-02-06T17:02:57.422Z,84.85
2023-02-06T17:08:01.560Z,84.52
2023-02-06T17:13:05.410Z,84.40
2023-02-06T17:18:07.970Z,84.75
2023-02-06T17:23:11.541Z,84.60
2023-02-06T17:28:20.626Z,84.67
2023-02-06T17:33:23.162Z,84.32
2023-02-06T17:38:25.743Z,84.72
2023-02-06T17:43:30.275Z,84.26
2023-02-06T17:48:36.331Z,84.15
2023-02-06T17:53:39.097Z,84.44
2023-02-06T17:58:44.171Z,84.47
2023-02-06T18:03:48.072Z,83.93
2023-02-06T18:08:50.655Z,84.45
2023-02-06T18:13:55.777Z,84.19
2023-02-06T18:18:58.734Z,84.23
2023-02-06T18:24:02.179Z,84.44
2023-02-06T18:29:06.894Z,84.41
2023-02-06T18:34:09.745Z,84.31
2023-02-06T18:39:14.012Z,84.41
2023-02-06T18:44:17.940Z,84.80
2023-02-06T18:49:20.585Z,84.91
2023-02-06T18:54:23.082Z,85.08
2023-02-06T18:59:26.911Z,85.12
2023-02-06T19:04:29.648Z,85.53
2023-02-06T19:09:32.185Z,85.50
2023-02-06T19:14:36.059Z,85.78
2023-02-06T19:19:38.554Z,85.52
2023-02-06T19:24:42.299Z,85.57
2023-02-06T19:29:46.323Z,85.72
2023-02-06T19:34:48.860Z,85.95
2023-02-06T19:39:51.404Z,85.84
2023-02-06T19:44:55.839Z,86.51
2023-02-06T19:49:58.342Z,86.75
2023-02-06T19:55:00.869Z,86.82
2023-02-06T20:00:05.856Z,86.50
2023-02-06T20:05:09.530Z,87.08
2023-02-06T20:10:12.070Z,86.99
2023-02-06T20:15:16.057Z,86.58
2023-02-06T20:20:18.986Z,87.30
2023-02-06T20:25:21.995Z,86.68
2023-02-06T20:30:26.468Z,87.25
2023-02-06T20:35:29.018Z,87.19
2023-02-06T20:40:31.649Z,87.09
2023-02-06T20:45:36.992Z,87.33
2023-02-06T20:50:39.682Z,86.85
2023-02-06T20:55:44.050Z,86.95
2023-02-06T21:00:50.016Z,87.10
2023-02-06T21:05:57.012Z,86.82
2023-02-06T21:10:59.550Z,87.77
2023-02-06T21:16:03.515Z,87.85
2023-02-06T21:21:09.416Z,88.20
2023-02-06T21:26:13.953Z,88.99
2023-02-06T21:31:19.769Z,88.71
2023-02-06T21:36:22.825Z,88.51
2023-02-06T21:41:25.358Z,88.17
2023-02-06T21:46:30.840Z,87.91
2023-02-06T21:51:33.468Z,88.07
2023-02-06T21:56:38.036Z,88.20
2023-02-06T22:01:42.080Z,88.23
2023-02-06T22:06:44.617Z,87.91
2023-02-06T22:11:47.832Z,88.58
2023-02-06T22:16:52.165Z,88.51
2023-02-06T22:21:54.752Z,88.30
2023-02-06T22:26:57.301Z,88.64
2023-02-06T22:32:04.316Z,88.97
2023-02-06T22:37:06.835Z,88.73
2023-02-06T22:42:09.382Z,88.63
2023-02-06T22:47:13.231Z,88.71
2023-02-06T22:52:33.588Z,89.29
2023-02-06T22:57:37.189Z,89.68
2023-02-06T23:02:41.094Z,89.73
2023-02-06T23:07:43.598Z,89.48
2023-02-06T23:12:46.069Z,89.57
2023-02-06T23:17:49.893Z,89.23
2023-02-06T23:22:52.389Z,89.61
2023-02-06T23:27:55.285Z,89.52
2023-02-06T23:32:59.143Z,89.29
2023-02-06T23:38:01.663Z,89.86
2023-02-06T23:43:04.417Z,90.27
2023-02-06T23:48:08.486Z,90.11
2023-02-06T23:53:12.218Z,90.33
2023-02-06T23:58:14.737Z,89.74
